台北 の空港の天気 - METARとTAF

台湾桃園国際空港 ( RCTP / TPE ) - 台湾 台北市
飛行場実況気象(Metar)
観測時間01/19 19:00 CST (01/19 11:00 UTC)
風向・風速不定 1m/s
視程10km以上
天気現象
少しの雲 雲底高度 300m
全天の8割程度の雲 雲底高度 2740m
気温18℃
湿度88%
気圧1019hPa
METARRCTP 191100Z VRB01KT 9999 FEW010 BKN090 18/16 Q1019 NOSIG RMK A3009
過去の天気等 Google飛行場航空写真 Wunderground天気予報

過去48時間のMETAR

飛行場予報(TAF)
発表時間: 1/19 13:00 CST (1/19 05:00 UTC)
予報対象時間: 19日14時 CST ~ 20日20時 CST
風向・風速北北東 3m/s
視程8000m
少しの雲 雲底高度 490m
全天の8割程度の雲 雲底高度 980m
19日14時 CST ~ 19日18時 CST に一時的に
風向・風速北西 3m/s
19日21時 CST ~ 20日2時 CST に一時的に
視程4000m
天気現象もや
20日2時 CST ~ 20日8時 CST に一時的に
風向・風速北北東 5m/s
視程2400m
天気現象もや
少しの雲 雲底高度 150m
全天の8割程度の雲 雲底高度 340m
20日8時 CST ~ 20日10時 CST に徐々に
風向・風速北東 6m/s
20日11時 CST ~ 20日17時 CST に一時的に
風向・風速北北東 9m/s
少しの雲 雲底高度 210m
全天の8割程度の雲 雲底高度 460m
TAF RCTP 190500Z 1906/2012 03005KT 8000 FEW016 BKN032
TEMPO 1906/1910 32005KT
TEMPO 1913/1918 4000 BR
TEMPO 1918/1924 03010KT 2400 BR FEW005 BKN011
BECMG 2000/2002 04012KT
TEMPO 2003/2009 03018KT FEW007 BKN015